Time;durP1;ratioP1;P1;durP2;ratioP2;P2;SDS_P1;SDS_P2;PMS_P1;PMS_P2;Temp;Humidity;BMP_temperature;BMP_pressure;BME280_temperature;BME280_humidity;BME280_pressure;Samples;Min_cycle;Max_cycle;Signal;HPM_P1;HPM_P2
2022/02/24 00:02:18;;;;;;;1.77;1.67;;;;;;;3.94;89.68;95969.03;5060781;28;20672;-80
2022/02/24 00:04:43;;;;;;;3.07;1.93;;;;;;;3.91;90.19;95967.50;5042897;28;20174;-80
2022/02/24 00:07:09;;;;;;;4.13;1.80;;;;;;;3.97;89.25;95967.09;5041575;28;20185;-81
2022/02/24 00:09:34;;;;;;;2.43;1.90;;;;;;;4.02;89.75;95969.38;5058580;28;20181;-81
2022/02/24 00:12:02;;;;;;;3.90;1.57;;;;;;;4.02;89.03;95958.28;5057067;28;20577;-80
2022/02/24 00:14:27;;;;;;;6.23;1.77;;;;;;;4.04;89.53;95951.28;5041782;28;20187;-81
2022/02/24 00:16:53;;;;;;;2.10;1.63;;;;;;;4.03;88.94;95944.50;5058678;28;20665;-81
2022/02/24 00:19:18;;;;;;;3.67;1.53;;;;;;;3.94;89.18;95958.75;5057744;28;20665;-81
2022/02/24 00:21:43;;;;;;;1.57;1.47;;;;;;;3.92;89.10;95963.19;5056441;28;20206;-81
2022/02/24 00:24:10;;;;;;;3.43;1.77;;;;;;;3.83;89.74;95963.75;5040444;28;20186;-81
2022/02/24 00:26:35;;;;;;;3.57;1.77;;;;;;;3.70;89.67;95958.53;5058208;28;20466;-81
2022/02/24 00:29:01;;;;;;;2.53;1.63;;;;;;;3.63;90.20;95959.88;5056897;28;20235;-81
2022/02/24 00:31:26;;;;;;;2.53;1.60;;;;;;;3.59;90.41;95960.97;5056033;28;20269;-81
2022/02/24 00:33:51;;;;;;;4.33;1.90;;;;;;;3.55;90.50;95944.94;5039519;28;20223;-81
2022/02/24 00:36:16;;;;;;;1.97;1.60;;;;;;;3.52;90.76;95947.69;5057803;28;20197;-80
2022/02/24 00:38:42;;;;;;;4.20;2.60;;;;;;;3.47;90.79;95952.28;5061247;28;20185;-80
2022/02/24 00:41:07;;;;;;;2.43;2.10;;;;;;;3.43;91.80;95950.81;5063163;28;20188;-80
2022/02/24 00:43:32;;;;;;;3.17;1.70;;;;;;;3.52;91.64;95952.81;5067047;28;20175;-81
2022/02/24 00:45:58;;;;;;;2.77;1.87;;;;;;;3.53;91.42;95941.63;5065508;28;20174;-81
2022/02/24 00:48:23;;;;;;;1.97;1.47;;;;;;;3.48;90.85;95946.22;5048259;28;20182;-81
2022/02/24 00:50:48;;;;;;;3.37;2.00;;;;;;;3.45;91.24;95943.88;5047014;28;20205;-81
2022/02/24 00:53:14;;;;;;;2.10;1.77;;;;;;;3.38;91.79;95943.41;5062173;28;20217;-81
2022/02/24 00:55:39;;;;;;;5.33;1.60;;;;;;;3.36;91.83;95940.13;5059026;28;20182;-81
2022/02/24 00:58:04;;;;;;;3.40;1.87;;;;;;;3.41;92.35;95939.81;5059374;28;20654;-81
2022/02/24 01:00:30;;;;;;;2.53;1.67;;;;;;;3.41;92.35;95938.06;5058302;28;20281;-81
2022/02/24 01:02:55;;;;;;;3.03;1.50;;;;;;;3.41;92.59;95932.13;5057820;28;20188;-81
2022/02/24 01:05:21;;;;;;;2.07;1.50;;;;;;;3.42;92.54;95932.00;5040339;28;20193;-82
2022/02/24 01:07:46;;;;;;;2.10;1.50;;;;;;;3.39;92.14;95929.66;5056563;28;20183;-81
2022/02/24 01:10:11;;;;;;;2.53;1.60;;;;;;;3.38;92.57;95925.44;5056706;28;20196;-81
2022/02/24 01:12:36;;;;;;;1.70;1.53;;;;;;;3.37;92.35;95920.41;5056267;28;20213;-81
2022/02/24 01:15:06;;;;;;;2.90;1.40;;;;;;;3.35;92.44;95919.66;5057003;28;20525;-80
2022/02/24 01:17:35;;;;;;;4.73;1.87;;;;;;;3.32;92.73;95919.84;5058436;28;20189;-81
2022/02/24 01:20:00;;;;;;;4.37;1.93;;;;;;;3.32;93.02;95918.09;5035850;28;20650;-81
2022/02/24 01:22:26;;;;;;;3.90;2.00;;;;;;;3.33;92.84;95911.22;5048424;28;20202;-81
2022/02/24 01:24:51;;;;;;;4.10;2.50;;;;;;;3.31;92.79;95913.88;5053328;28;20186;-81
2022/02/24 01:27:17;;;;;;;5.83;2.07;;;;;;;3.32;92.71;95917.28;5036860;28;20180;-81
2022/02/24 01:29:42;;;;;;;5.33;1.83;;;;;;;3.29;93.38;95907.22;5052872;28;20241;-81
2022/02/24 01:32:08;;;;;;;2.70;2.03;;;;;;;3.24;92.92;95904.09;5035694;28;20297;-81
2022/02/24 01:34:33;;;;;;;2.97;1.80;;;;;;;3.22;93.21;95904.19;5036840;28;20266;-80
2022/02/24 01:36:58;;;;;;;4.03;2.00;;;;;;;3.20;93.71;95898.34;5036754;28;20182;-82
2022/02/24 01:39:24;;;;;;;3.63;2.13;;;;;;;3.20;93.53;95894.94;5052076;28;20284;-82
2022/02/24 01:41:49;;;;;;;3.63;1.83;;;;;;;3.22;94.45;95880.28;5035750;28;20627;-82
2022/02/24 01:44:14;;;;;;;2.30;1.90;;;;;;;3.27;94.35;95885.94;5052897;28;20226;-81
2022/02/24 01:46:42;;;;;;;6.03;2.10;;;;;;;3.29;94.56;95886.69;5052454;28;20221;-82
2022/02/24 01:49:08;;;;;;;2.20;1.90;;;;;;;3.33;94.24;95877.84;5054137;28;20174;-82
2022/02/24 01:51:34;;;;;;;3.23;1.90;;;;;;;3.34;94.09;95871.78;5052223;28;20215;-82
2022/02/24 01:53:59;;;;;;;4.77;2.83;;;;;;;3.36;94.57;95870.81;5052491;28;20174;-82
2022/02/24 01:56:25;;;;;;;2.47;2.03;;;;;;;3.39;95.27;95862.06;5036183;28;20266;-81
2022/02/24 01:58:51;;;;;;;4.37;2.03;;;;;;;3.44;94.88;95861.78;5053889;28;20179;-82
2022/02/24 02:01:16;;;;;;;4.50;2.00;;;;;;;3.48;94.92;95856.38;5053157;28;20266;-82
2022/02/24 02:03:42;;;;;;;3.37;1.87;;;;;;;3.51;94.35;95845.06;5053783;28;20178;-81
2022/02/24 02:06:07;;;;;;;4.73;2.10;;;;;;;3.53;94.34;95849.16;5052979;28;20177;-82
2022/02/24 02:08:33;;;;;;;3.50;2.10;;;;;;;3.55;94.16;95839.66;5052298;28;20181;-82
2022/02/24 02:10:59;;;;;;;3.93;2.23;;;;;;;3.55;94.43;95841.41;5052168;28;20713;-82
2022/02/24 02:13:24;;;;;;;3.10;2.00;;;;;;;3.52;94.38;95832.13;5032784;28;20684;-82
2022/02/24 02:15:52;;;;;;;4.70;2.17;;;;;;;3.50;94.40;95821.13;5032416;28;20174;-82
2022/02/24 02:18:19;;;;;;;4.27;2.40;;;;;;;3.47;94.90;95823.91;5033605;28;20182;-82
2022/02/24 02:20:45;;;;;;;3.27;2.07;;;;;;;3.45;94.66;95818.06;5031602;28;20198;-82
2022/02/24 02:23:10;;;;;;;4.57;2.10;;;;;;;3.45;94.65;95809.53;5014236;28;20197;-82
2022/02/24 02:25:35;;;;;;;4.13;2.10;;;;;;;3.45;94.61;95812.91;5031700;28;20181;-81
2022/02/24 02:28:01;;;;;;;3.33;1.90;;;;;;;3.44;94.46;95807.84;5032604;28;20182;-82
2022/02/24 02:30:26;;;;;;;3.20;2.30;;;;;;;3.41;95.23;95803.75;5033865;28;20181;-81
2022/02/24 02:32:51;;;;;;;2.77;1.77;;;;;;;3.46;94.67;95803.47;5032647;28;20238;-82
2022/02/24 02:35:17;;;;;;;3.43;2.10;;;;;;;3.45;94.65;95799.25;5031444;28;20230;-82
2022/02/24 02:37:42;;;;;;;5.40;2.27;;;;;;;3.41;95.05;95789.16;5033537;28;20545;-81
2022/02/24 02:40:09;;;;;;;3.53;2.00;;;;;;;3.43;95.41;95796.75;5031139;28;20187;-82
2022/02/24 02:42:34;;;;;;;4.17;2.10;;;;;;;3.43;95.10;95791.63;5031347;28;20196;-81
2022/02/24 02:44:59;;;;;;;3.70;1.93;;;;;;;3.42;94.86;95790.00;5032272;28;20363;-82
2022/02/24 02:47:24;;;;;;;3.47;2.20;;;;;;;3.40;95.11;95786.72;5031535;28;20182;-81
2022/02/24 02:49:50;;;;;;;5.57;2.00;;;;;;;3.39;95.88;95782.50;5032035;28;20174;-82
2022/02/24 02:52:15;;;;;;;2.93;2.20;;;;;;;3.45;95.30;95776.16;5030509;28;20215;-82
2022/02/24 02:54:40;;;;;;;4.70;1.87;;;;;;;3.47;94.47;95774.31;5032777;28;20179;-81
2022/02/24 02:57:06;;;;;;;3.17;2.10;;;;;;;3.45;95.02;95779.53;5031361;28;20668;-82
2022/02/24 02:59:31;;;;;;;2.80;2.10;;;;;;;3.55;95.00;95775.47;5031727;28;20177;-82
2022/02/24 03:01:57;;;;;;;3.67;2.10;;;;;;;3.61;94.39;95779.34;5033284;28;20221;-81
2022/02/24 03:04:23;;;;;;;4.03;2.30;;;;;;;3.73;94.17;95773.44;5034555;28;20180;-82
2022/02/24 03:06:48;;;;;;;5.37;2.23;;;;;;;3.78;94.06;95766.22;5033610;28;20206;-81
2022/02/24 03:09:13;;;;;;;5.77;2.53;;;;;;;3.87;93.28;95764.81;5032705;28;20205;-82
2022/02/24 03:11:39;;;;;;;2.47;2.07;;;;;;;3.91;93.50;95763.69;5034069;28;20712;-82
2022/02/24 03:14:04;;;;;;;4.17;2.40;;;;;;;4.07;92.82;95763.50;5034555;28;20195;-82
2022/02/24 03:16:29;;;;;;;5.57;2.60;;;;;;;4.06;92.59;95765.22;5038202;28;20712;-81
2022/02/24 03:18:55;;;;;;;4.83;2.23;;;;;;;4.10;92.73;95760.72;5036789;28;20192;-82
2022/02/24 03:21:20;;;;;;;3.60;2.50;;;;;;;4.19;91.87;95749.81;5036107;28;20198;-82
2022/02/24 03:23:45;;;;;;;5.17;2.30;;;;;;;4.21;92.36;95746.22;5018357;28;20188;-82
2022/02/24 03:26:11;;;;;;;4.17;2.20;;;;;;;4.25;91.76;95741.69;5035118;28;20190;-82
2022/02/24 03:28:36;;;;;;;4.40;2.20;;;;;;;4.31;91.55;95738.69;5035656;28;20190;-82
2022/02/24 03:31:02;;;;;;;5.20;2.57;;;;;;;4.31;91.16;95741.25;5035182;28;20693;-81
2022/02/24 03:33:27;;;;;;;5.20;2.43;;;;;;;4.34;91.50;95742.81;5036657;28;20199;-82
2022/02/24 03:35:52;;;;;;;6.03;2.67;;;;;;;4.33;90.96;95734.28;5036274;28;20181;-81
2022/02/24 03:38:18;;;;;;;6.47;2.63;;;;;;;4.30;91.04;95731.09;5036444;28;20193;-83
2022/02/24 03:40:43;;;;;;;4.77;3.07;;;;;;;4.31;90.91;95730.97;5035084;28;20190;-82
2022/02/24 03:43:08;;;;;;;5.10;2.57;;;;;;;4.26;90.89;95721.03;5036235;28;20197;-82
2022/02/24 03:45:33;;;;;;;4.00;2.40;;;;;;;4.31;90.88;95720.69;5041859;28;20252;-81
2022/02/24 03:47:59;;;;;;;4.37;2.63;;;;;;;4.31;90.14;95720.69;5043088;28;20187;-82
2022/02/24 03:50:24;;;;;;;5.70;3.10;;;;;;;4.32;90.59;95724.09;5043281;28;20233;-82
2022/02/24 03:52:50;;;;;;;5.40;3.40;;;;;;;4.31;90.46;95715.56;5042850;28;20204;-82
2022/02/24 03:55:15;;;;;;;4.00;2.53;;;;;;;4.27;90.71;95724.41;5040207;28;20183;-83
2022/02/24 03:57:41;;;;;;;5.10;2.57;;;;;;;4.33;90.48;95715.44;5041794;28;20175;-82
2022/02/24 04:00:07;;;;;;;4.40;2.40;;;;;;;4.28;90.13;95712.38;5041321;28;20178;-82
2022/02/24 04:02:33;;;;;;;2.83;2.50;;;;;;;4.22;90.74;95711.03;5041062;28;20193;-82
2022/02/24 04:04:58;;;;;;;3.60;2.47;;;;;;;4.16;90.31;95707.16;5039341;28;20189;-82
2022/02/24 04:07:23;;;;;;;3.57;2.33;;;;;;;4.14;90.85;95706.41;5038793;28;20240;-82
2022/02/24 04:09:49;;;;;;;4.10;2.10;;;;;;;4.11;90.54;95705.81;5039087;28;20188;-82
2022/02/24 04:12:15;;;;;;;3.13;2.20;;;;;;;3.99;91.23;95707.47;5038058;28;20230;-82
2022/02/24 04:14:41;;;;;;;3.13;2.33;;;;;;;4.00;91.21;95705.72;5040157;28;20178;-82
2022/02/24 04:17:07;;;;;;;5.13;2.40;;;;;;;3.93;91.47;95690.72;5040647;28;20182;-82
2022/02/24 04:19:32;;;;;;;3.50;2.20;;;;;;;3.90;91.58;95690.13;5037633;28;20190;-82
2022/02/24 04:21:57;;;;;;;3.60;1.80;;;;;;;3.89;91.87;95693.63;5039714;28;20231;-82
2022/02/24 04:24:22;;;;;;;5.90;2.33;;;;;;;3.84;91.87;95687.94;5040290;28;20185;-82
2022/02/24 04:26:48;;;;;;;3.77;2.30;;;;;;;3.91;92.01;95690.00;5041334;28;20179;-82
2022/02/24 04:29:13;;;;;;;4.13;2.57;;;;;;;3.94;91.19;95691.53;5041036;28;20195;-82
2022/02/24 04:31:38;;;;;;;6.00;2.40;;;;;;;3.91;91.14;95684.03;5041058;28;20701;-82
2022/02/24 04:34:04;;;;;;;2.87;2.30;;;;;;;3.89;91.02;95671.31;5043472;28;20178;-81
2022/02/24 04:36:29;;;;;;;3.53;2.30;;;;;;;3.88;91.03;95667.06;5044561;28;20187;-81
2022/02/24 04:38:54;;;;;;;2.30;2.10;;;;;;;3.76;91.51;95664.53;5043195;28;20554;-81
2022/02/24 04:41:19;;;;;;;3.97;2.20;;;;;;;3.64;91.26;95655.91;5040839;28;20233;-81
2022/02/24 04:43:45;;;;;;;3.10;2.07;;;;;;;3.51;91.94;95658.44;5040839;28;20183;-81
2022/02/24 04:46:10;;;;;;;4.03;2.10;;;;;;;3.44;92.36;95654.63;5039954;28;20175;-81
2022/02/24 04:48:35;;;;;;;3.37;2.23;;;;;;;3.47;92.24;95654.47;5039588;28;20171;-80
2022/02/24 04:51:01;;;;;;;3.67;2.50;;;;;;;3.38;93.02;95655.06;5037779;28;20213;-81
2022/02/24 04:53:26;;;;;;;6.70;3.30;;;;;;;3.37;92.64;95653.44;5038178;28;20244;-80
2022/02/24 04:55:53;;;;;;;4.17;2.63;;;;;;;3.40;93.10;95648.91;5037438;28;20173;-81
2022/02/24 04:58:18;;;;;;;6.83;2.90;;;;;;;3.29;93.55;95640.28;5037689;28;20172;-82
2022/02/24 05:00:45;;;;;;;4.23;2.53;;;;;;;3.29;93.81;95638.53;5034205;28;20178;-82
2022/02/24 05:03:10;;;;;;;3.40;2.50;;;;;;;3.25;93.95;95637.06;5033917;28;20187;-81
2022/02/24 05:05:36;;;;;;;4.13;2.50;;;;;;;3.25;93.54;95628.53;5034720;28;20189;-81
2022/02/24 05:08:01;;;;;;;3.37;2.10;;;;;;;3.25;93.99;95628.53;5043556;28;20178;-82
2022/02/24 05:10:26;;;;;;;4.07;2.43;;;;;;;3.23;93.74;95622.69;5030246;28;20178;-82
2022/02/24 05:12:52;;;;;;;8.00;2.30;;;;;;;3.20;93.63;95615.22;5053017;28;20221;-82
2022/02/24 05:15:17;;;;;;;2.17;1.80;;;;;;;3.25;93.97;95618.28;5052605;28;20258;-82
2022/02/24 05:17:42;;;;;;;4.60;2.00;;;;;;;3.20;93.82;95618.59;5053572;28;20277;-82
2022/02/24 05:20:10;;;;;;;4.73;2.17;;;;;;;3.21;94.08;95622.81;5052134;28;20173;-80
2022/02/24 05:22:39;;;;;;;3.23;2.07;;;;;;;3.20;93.67;95621.16;5051681;28;20641;-82
2022/02/24 05:25:05;;;;;;;4.70;2.27;;;;;;;3.21;93.39;95616.84;5055354;28;20176;-82
2022/02/24 05:27:30;;;;;;;2.67;2.20;;;;;;;3.24;93.61;95619.22;5050965;28;20182;-82
2022/02/24 05:29:56;;;;;;;3.43;2.20;;;;;;;3.22;93.73;95614.19;5052835;28;20641;-82
2022/02/24 05:32:21;;;;;;;5.60;2.10;;;;;;;3.27;93.44;95614.72;5053904;28;20584;-82
2022/02/24 05:34:46;;;;;;;3.43;2.40;;;;;;;3.22;93.27;95613.38;5036052;28;20228;-82
2022/02/24 05:37:12;;;;;;;3.80;2.10;;;;;;;3.23;93.08;95607.31;5053733;28;20186;-82
2022/02/24 05:39:37;;;;;;;2.93;2.27;;;;;;;3.18;93.84;95602.50;5037460;28;20178;-82
2022/02/24 05:42:02;;;;;;;4.40;2.17;;;;;;;3.26;93.25;95596.81;5043921;28;20639;-81
2022/02/24 05:44:28;;;;;;;2.70;2.13;;;;;;;3.29;92.99;95588.94;5035209;28;20876;-81
2022/02/24 05:46:53;;;;;;;5.10;2.23;;;;;;;3.29;93.02;95594.91;5035316;28;20650;-81
2022/02/24 05:49:18;;;;;;;3.53;2.20;;;;;;;3.28;92.71;95589.88;5035246;28;20264;-81
2022/02/24 05:51:44;;;;;;;3.93;2.10;;;;;;;3.28;93.37;95593.25;5034657;28;20215;-80
2022/02/24 05:54:10;;;;;;;4.90;2.50;;;;;;;3.25;92.99;95593.44;5033920;28;20197;-81
2022/02/24 05:56:35;;;;;;;3.20;2.23;;;;;;;3.22;93.28;95582.56;5035435;28;20179;-80
2022/02/24 05:59:01;;;;;;;3.53;2.10;;;;;;;3.22;93.29;95590.25;5032526;28;20189;-80
2022/02/24 06:01:26;;;;;;;4.37;2.60;;;;;;;3.21;93.80;95591.19;5032719;28;20586;-82
2022/02/24 06:03:52;;;;;;;2.57;2.13;;;;;;;3.11;94.17;95599.50;5020621;28;20297;-80
2022/02/24 06:06:17;;;;;;;8.83;3.80;;;;;;;3.22;93.96;95605.66;5053791;28;20292;-81
2022/02/24 06:08:43;;;;;;;6.10;4.10;;;;;;;3.32;93.69;95612.66;5052743;28;20210;-80
2022/02/24 06:11:08;;;;;;;5.17;3.07;;;;;;;3.34;93.32;95607.41;5043146;28;20195;-81
2022/02/24 06:13:34;;;;;;;4.00;2.50;;;;;;;3.29;93.77;95609.47;5049358;28;20236;-80
2022/02/24 06:16:00;;;;;;;8.43;2.70;;;;;;;3.26;93.80;95607.91;5049710;28;20182;-81
2022/02/24 06:18:25;;;;;;;4.83;2.80;;;;;;;3.26;94.08;95601.97;5053823;28;20198;-81
2022/02/24 06:20:50;;;;;;;7.53;4.50;;;;;;;3.31;94.08;95602.47;5051570;28;20170;-80
2022/02/24 06:23:16;;;;;;;3.73;3.33;;;;;;;3.37;93.89;95602.91;5054477;28;20197;-80
2022/02/24 06:25:41;;;;;;;6.47;2.70;;;;;;;3.38;93.69;95594.28;5059048;28;20178;-80
2022/02/24 06:28:06;;;;;;;5.50;4.13;;;;;;;3.37;92.98;95592.63;5054886;28;20174;-79
2022/02/24 06:30:31;;;;;;;3.20;2.47;;;;;;;3.36;93.36;95590.19;5035617;28;20231;-80
2022/02/24 06:32:57;;;;;;;4.77;2.70;;;;;;;3.36;93.02;95588.44;5034548;28;20214;-80
2022/02/24 06:35:22;;;;;;;4.70;2.47;;;;;;;3.33;93.36;95591.19;5035229;28;20180;-81
2022/02/24 06:37:47;;;;;;;3.40;2.33;;;;;;;3.35;93.04;95588.50;5052526;28;20263;-80
2022/02/24 06:40:13;;;;;;;3.03;2.30;;;;;;;3.37;93.43;95582.38;5051418;28;20654;-80
2022/02/24 06:42:40;;;;;;;6.00;2.70;;;;;;;3.34;93.38;95584.31;5052252;28;20670;-80
2022/02/24 06:45:06;;;;;;;3.77;2.40;;;;;;;3.39;93.25;95572.81;5052381;28;20176;-80
2022/02/24 06:47:31;;;;;;;3.10;2.30;;;;;;;3.45;92.90;95573.34;5055850;28;20190;-81
2022/02/24 06:49:56;;;;;;;3.93;2.13;;;;;;;3.57;92.43;95564.78;5035811;28;20212;-80
2022/02/24 06:52:22;;;;;;;4.10;2.43;;;;;;;3.59;91.88;95571.47;5038603;28;20221;-80
2022/02/24 06:54:47;;;;;;;4.43;2.23;;;;;;;3.59;91.61;95565.50;5057469;28;20542;-80
2022/02/24 06:57:13;;;;;;;3.30;2.00;;;;;;;3.64;91.79;95569.41;5060519;28;20169;-80
2022/02/24 06:59:38;;;;;;;3.33;2.20;;;;;;;3.68;91.44;95565.69;5042479;28;20193;-80
2022/02/24 07:02:05;;;;;;;3.77;1.83;;;;;;;3.70;91.23;95563.00;5056759;28;20187;-80
2022/02/24 07:04:31;;;;;;;2.67;2.00;;;;;;;3.75;91.04;95557.56;5039912;28;20173;-81
2022/02/24 07:06:58;;;;;;;2.33;1.80;;;;;;;3.83;90.31;95550.97;5059064;28;20190;-81
2022/02/24 07:09:24;;;;;;;3.03;1.93;;;;;;;3.89;90.50;95560.03;5041942;28;20690;-81
2022/02/24 07:11:49;;;;;;;2.60;2.03;;;;;;;3.86;90.74;95557.66;5041675;28;20211;-80
2022/02/24 07:14:15;;;;;;;4.63;2.20;;;;;;;3.87;90.22;95551.56;5041757;28;20273;-81
2022/02/24 07:16:40;;;;;;;2.60;2.00;;;;;;;3.75;89.99;95553.25;5057268;28;20190;-81
2022/02/24 07:19:05;;;;;;;3.30;2.03;;;;;;;3.86;89.44;95555.06;5041904;28;20185;-80
2022/02/24 07:21:31;;;;;;;1.97;1.77;;;;;;;3.98;88.99;95556.81;5057011;28;20227;-80
2022/02/24 07:23:56;;;;;;;2.50;1.83;;;;;;;4.03;88.86;95548.75;5056181;28;20640;-80
2022/02/24 07:26:22;;;;;;;4.63;2.80;;;;;;;3.91;88.43;95545.31;5055371;28;20220;-81
2022/02/24 07:28:47;;;;;;;2.97;2.10;;;;;;;3.96;89.11;95550.94;5056007;28;20761;-81
2022/02/24 07:31:12;;;;;;;4.30;2.10;;;;;;;4.02;88.46;95550.50;5055488;28;20170;-81
2022/02/24 07:33:38;;;;;;;2.70;1.50;;;;;;;4.05;88.01;95546.91;5058307;28;20237;-81
2022/02/24 07:36:04;;;;;;;3.97;2.23;;;;;;;4.11;88.34;95549.03;5056656;28;20551;-81
2022/02/24 07:38:29;;;;;;;1.73;1.50;;;;;;;4.10;87.69;95537.13;5055383;28;20540;-83
2022/02/24 07:40:54;;;;;;;3.70;2.00;;;;;;;4.04;87.70;95540.94;5056863;28;20180;-81
2022/02/24 07:43:20;;;;;;;3.10;1.80;;;;;;;4.16;87.58;95534.13;5054965;28;20296;-81
2022/02/24 07:45:45;;;;;;;2.73;2.30;;;;;;;4.25;87.03;95530.91;5055314;28;20181;-81
2022/02/24 07:48:10;;;;;;;4.33;2.33;;;;;;;4.33;86.34;95531.19;5054870;28;20282;-80
2022/02/24 07:50:36;;;;;;;3.33;2.30;;;;;;;4.42;86.30;95529.69;5055922;28;20264;-82
2022/02/24 07:53:02;;;;;;;4.70;2.50;;;;;;;4.52;85.35;95525.53;5037599;28;20307;-81
2022/02/24 07:55:28;;;;;;;5.17;3.57;;;;;;;4.44;85.81;95523.50;5054822;28;20191;-81
2022/02/24 07:57:53;;;;;;;4.93;2.60;;;;;;;4.52;85.62;95525.53;5055980;28;20261;-82
2022/02/24 08:00:19;;;;;;;2.53;1.77;;;;;;;4.65;84.69;95512.59;5055409;28;20636;-81
2022/02/24 08:02:44;;;;;;;3.60;2.23;;;;;;;4.65;84.49;95515.97;5037462;28;20209;-81
2022/02/24 08:05:10;;;;;;;2.20;2.00;;;;;;;4.76;84.48;95508.28;5039320;28;20185;-81
2022/02/24 08:07:36;;;;;;;3.93;2.00;;;;;;;4.86;84.14;95505.88;5056137;28;20201;-81
2022/02/24 08:10:01;;;;;;;2.03;1.80;;;;;;;4.94;83.88;95498.38;5038636;28;20653;-81
2022/02/24 08:12:44;;;;;;;3.03;1.80;;;;;;;5.08;83.38;95502.50;5056821;28;20210;-81
2022/02/24 08:15:15;;;;;;;3.30;2.40;;;;;;;5.13;82.94;95500.41;5056936;28;20179;-81
2022/02/24 08:17:41;;;;;;;3.27;2.17;;;;;;;5.25;82.75;95496.91;5056681;28;20181;-80
2022/02/24 08:20:07;;;;;;;3.47;2.07;;;;;;;5.30;83.03;95494.81;5057524;28;20177;-81
2022/02/24 08:22:39;;;;;;;4.60;2.30;;;;;;;5.37;82.71;95497.72;5057353;28;20277;-81
2022/02/24 08:25:05;;;;;;;2.93;1.73;;;;;;;5.39;82.08;95491.53;5040132;28;20197;-80
2022/02/24 08:27:31;;;;;;;3.00;2.00;;;;;;;5.44;81.71;95492.94;5059620;28;20519;-81
2022/02/24 08:29:57;;;;;;;2.03;1.80;;;;;;;5.47;81.81;95490.94;5041922;28;20288;-82
2022/02/24 08:32:24;;;;;;;3.87;1.83;;;;;;;5.64;81.37;95481.91;5058657;28;20240;-81
2022/02/24 08:34:49;;;;;;;3.73;2.00;;;;;;;5.69;81.42;95485.78;5057605;28;20169;-82
2022/02/24 08:37:15;;;;;;;2.10;1.90;;;;;;;5.71;81.13;95488.22;5040582;28;20762;-81
2022/02/24 08:39:40;;;;;;;2.70;1.63;;;;;;;5.73;81.18;95481.19;5058370;28;20216;-81
2022/02/24 08:42:05;;;;;;;2.37;1.43;;;;;;;5.85;81.11;95482.00;5055600;28;20198;-81
2022/02/24 08:44:31;;;;;;;3.27;1.67;;;;;;;5.94;80.66;95476.97;5039948;28;20214;-81
2022/02/24 08:46:56;;;;;;;4.03;1.70;;;;;;;6.01;80.29;95476.47;5057301;28;20180;-80
2022/02/24 08:49:21;;;;;;;3.07;1.23;;;;;;;6.15;79.80;95476.19;5055996;28;20185;-81
2022/02/24 08:51:47;;;;;;;1.30;1.20;;;;;;;6.28;78.83;95476.88;5055610;28;20221;-81
2022/02/24 08:54:14;;;;;;;2.10;1.30;;;;;;;6.50;78.99;95470.78;5054930;28;20178;-81
2022/02/24 08:56:40;;;;;;;2.37;1.23;;;;;;;6.51;78.05;95468.09;5056309;28;20241;-80
2022/02/24 08:59:05;;;;;;;1.77;1.30;;;;;;;6.55;77.88;95473.81;5059246;28;20606;-80
2022/02/24 09:01:31;;;;;;;1.70;1.17;;;;;;;6.67;78.21;95466.84;5040655;28;20684;-81
2022/02/24 09:03:57;;;;;;;2.17;1.20;;;;;;;6.70;77.44;95464.00;5056901;28;20209;-81
2022/02/24 09:06:22;;;;;;;3.80;1.57;;;;;;;6.64;77.76;95456.78;5057272;28;20217;-81
2022/02/24 09:08:47;;;;;;;3.83;1.57;;;;;;;6.71;77.49;95456.13;5056128;28;20185;-80
2022/02/24 09:11:13;;;;;;;3.73;2.27;;;;;;;6.75;77.20;95452.38;5055108;28;20192;-80
2022/02/24 09:13:41;;;;;;;6.47;3.50;;;;;;;6.74;76.74;95448.16;5057342;28;20620;-81
2022/02/24 09:16:07;;;;;;;3.77;1.67;;;;;;;6.77;76.98;95444.50;5056480;28;20678;-81
2022/02/24 09:18:33;;;;;;;2.70;1.50;;;;;;;6.81;76.78;95445.88;5058249;28;20196;-81
2022/02/24 09:20:58;;;;;;;2.33;1.93;;;;;;;6.84;76.79;95439.66;5060118;28;20190;-81
2022/02/24 09:23:24;;;;;;;1.90;1.60;;;;;;;7.02;76.50;95435.53;5059000;28;20207;-81
2022/02/24 09:25:49;;;;;;;1.33;1.13;;;;;;;7.19;75.88;95440.09;5059551;28;20190;-81
2022/02/24 09:28:14;;;;;;;5.27;1.60;;;;;;;7.28;75.89;95431.56;5056684;28;20173;-81
2022/02/24 09:30:40;;;;;;;2.20;1.60;;;;;;;7.38;75.85;95435.00;5057465;28;20546;-81
2022/02/24 09:33:06;;;;;;;3.73;2.03;;;;;;;7.26;74.86;95432.66;5056926;28;20217;-81
2022/02/24 09:35:31;;;;;;;2.97;1.50;;;;;;;7.27;75.02;95427.34;5059156;28;20174;-81
2022/02/24 09:37:56;;;;;;;5.23;1.80;;;;;;;7.32;74.68;95432.09;5056075;28;20235;-81
2022/02/24 09:40:22;;;;;;;4.37;1.87;;;;;;;7.14;75.41;95425.91;5038765;28;20594;-81
2022/02/24 09:42:48;;;;;;;4.43;2.00;;;;;;;7.27;74.79;95423.94;5055784;28;20618;-81
2022/02/24 09:45:13;;;;;;;2.67;1.83;;;;;;;7.33;74.70;95419.09;5039877;28;20182;-81
2022/02/24 09:47:39;;;;;;;3.07;1.70;;;;;;;7.36;74.24;95418.00;5057103;28;20745;-81
2022/02/24 09:50:06;;;;;;;3.30;1.70;;;;;;;7.60;74.11;95409.91;5056341;28;20224;-81
2022/02/24 09:52:31;;;;;;;1.80;1.40;;;;;;;7.76;73.31;95407.63;5056681;28;20209;-82
2022/02/24 09:54:57;;;;;;;3.87;2.00;;;;;;;7.83;72.73;95403.53;5054471;28;20185;-81
2022/02/24 09:57:22;;;;;;;6.27;1.60;;;;;;;7.87;73.04;95409.28;5052643;28;20220;-81
2022/02/24 09:59:47;;;;;;;3.63;1.63;;;;;;;7.97;71.86;95404.94;5052713;28;20311;-81
2022/02/24 10:02:15;;;;;;;4.00;1.60;;;;;;;8.11;71.58;95401.94;5037018;28;20189;-84
2022/02/24 10:05:03;;;;;;;5.83;1.50;;;;;;;8.19;71.59;95406.44;5052429;28;20257;-81
2022/02/24 10:07:28;;;;;;;3.23;1.30;;;;;;;8.25;71.36;95398.13;5053992;28;20201;-78
2022/02/24 10:09:53;;;;;;;3.17;1.50;;;;;;;8.35;70.65;95392.97;5054220;28;20178;-82
2022/02/24 10:12:18;;;;;;;2.57;1.30;;;;;;;8.40;71.46;95391.63;5052375;28;20729;-82
2022/02/24 10:14:44;;;;;;;1.73;1.60;;;;;;;8.56;70.27;95387.63;5053445;28;20239;-81
2022/02/24 10:17:09;;;;;;;4.40;1.40;;;;;;;8.75;70.26;95375.47;5054215;28;20181;-81
2022/02/24 10:19:45;;;;;;;1.57;1.30;;;;;;;8.82;69.09;95374.91;5053317;28;20213;-81
2022/02/24 10:22:20;;;;;;;3.03;1.40;;;;;;;9.15;68.57;95368.38;5051620;28;20194;-82
2022/02/24 10:24:56;;;;;;;2.50;1.40;;;;;;;9.23;67.80;95371.88;5054264;28;20233;-83
2022/02/24 10:27:28;;;;;;;4.10;1.50;;;;;;;9.43;67.53;95370.00;5057850;28;20188;-82
2022/02/24 10:30:16;;;;;;;2.27;1.60;;;;;;;9.61;66.91;95375.22;5055900;28;20660;-82
2022/02/24 10:32:42;;;;;;;3.47;1.53;;;;;;;9.82;65.87;95369.78;5056996;28;20575;-80
2022/02/24 10:35:43;;;;;;;3.03;1.30;;;;;;;9.59;65.53;95362.41;5057254;28;20182;-84
2022/02/24 10:38:13;;;;;;;2.20;1.13;;;;;;;9.46;66.05;95363.75;5058958;28;20204;-82
2022/02/24 10:40:47;;;;;;;2.73;1.40;;;;;;;9.54;66.61;95367.25;5073866;28;20235;-82
2022/02/24 10:43:17;;;;;;;3.40;1.47;;;;;;;9.50;66.02;95365.06;5073580;28;20190;-82
2022/02/24 10:45:44;;;;;;;6.53;1.77;;;;;;;9.39;66.38;95373.88;5072903;28;20177;-81
2022/02/24 10:48:09;;;;;;;2.80;1.50;;;;;;;9.54;66.73;95359.47;5039515;28;20178;-81
2022/02/24 10:50:47;;;;;;;2.60;1.57;;;;;;;9.60;66.63;95356.25;5057547;28;20656;-80
2022/02/24 10:53:12;;;;;;;2.80;1.30;;;;;;;9.38;66.81;95356.69;5056565;28;20209;-81
2022/02/24 10:55:54;;;;;;;3.10;1.37;;;;;;;9.29;66.06;95360.97;5057227;28;20220;-82
2022/02/24 10:58:20;;;;;;;2.60;1.70;;;;;;;9.47;66.83;95361.00;5055595;28;20228;-82
2022/02/24 11:00:46;;;;;;;4.67;1.80;;;;;;;9.33;66.72;95362.28;5072900;28;20697;-81
2022/02/24 11:03:11;;;;;;;1.30;1.20;;;;;;;9.15;67.08;95366.59;5072292;28;20198;-83
2022/02/24 11:05:37;;;;;;;1.50;1.20;;;;;;;9.22;67.63;95351.31;5072544;28;20178;-82
2022/02/24 11:08:04;;;;;;;2.67;1.40;;;;;;;9.41;66.62;95346.03;5057428;28;20181;-82
2022/02/24 11:10:30;;;;;;;1.60;1.27;;;;;;;9.69;63.07;95354.56;5072723;28;20181;-81
2022/02/24 11:12:55;;;;;;;1.20;1.00;;;;;;;10.17;62.12;95332.66;5054348;28;20301;-82
2022/02/24 11:15:21;;;;;;;4.00;1.43;;;;;;;10.20;58.61;95332.34;5071640;28;20277;-81
2022/02/24 11:17:48;;;;;;;3.63;1.30;;;;;;;10.53;57.62;95349.00;5056739;28;20554;-82
2022/02/24 11:20:14;;;;;;;2.17;1.20;;;;;;;10.37;55.64;95331.53;5056238;28;20656;-81
2022/02/24 11:22:40;;;;;;;4.73;1.30;;;;;;;10.65;56.21;95323.59;5071133;28;20186;-81
2022/02/24 11:25:06;;;;;;;2.80;1.30;;;;;;;10.69;55.33;95324.91;5056340;28;20188;-81
2022/02/24 11:27:37;;;;;;;1.97;0.97;;;;;;;10.46;55.35;95327.22;5054321;28;20187;-81
2022/02/24 11:30:25;;;;;;;1.67;0.90;;;;;;;10.11;55.21;95328.88;5054427;28;20173;-81
2022/02/24 11:32:50;;;;;;;2.93;1.43;;;;;;;10.29;55.76;95333.25;5070464;28;20664;-82
2022/02/24 11:35:15;;;;;;;2.37;1.27;;;;;;;10.14;55.37;95323.38;5056241;28;20335;-81
2022/02/24 11:37:48;;;;;;;1.63;1.23;;;;;;;10.29;55.03;95322.88;5052216;28;20178;-81